createdAt,value
2018-05-02T00:01:27.413Z,77.02
2018-05-02T00:03:53.408Z,76.73
2018-05-02T00:06:19.428Z,76.83
2018-05-02T00:08:45.519Z,77.02
2018-05-02T00:11:11.547Z,77.82
2018-05-02T00:13:37.560Z,77.26
2018-05-02T00:16:03.640Z,76.59
2018-05-02T00:18:29.632Z,76.76
2018-05-02T00:20:55.740Z,77.46
2018-05-02T00:23:21.815Z,78.46
2018-05-02T00:25:47.832Z,77.14
2018-05-02T00:28:13.871Z,77.68
2018-05-02T00:30:39.876Z,77.97
2018-05-02T00:33:05.879Z,77.55
2018-05-02T00:35:31.925Z,78.95
2018-05-02T00:37:57.978Z,77.69
2018-05-02T00:40:24.023Z,77.61
2018-05-02T00:42:50.056Z,78.49
2018-05-02T00:45:16.095Z,78.19
2018-05-02T00:47:42.132Z,78.02
2018-05-02T00:50:08.152Z,78.28
2018-05-02T00:52:34.177Z,78.33
2018-05-02T00:55:00.328Z,79.17
2018-05-02T00:57:27.332Z,78.36
2018-05-02T00:59:53.354Z,79.38
2018-05-02T01:02:19.377Z,78.29
2018-05-02T01:04:45.381Z,78.58
2018-05-02T01:07:11.361Z,78.69
2018-05-02T01:09:37.381Z,78.91
2018-05-02T01:12:03.428Z,79.17
2018-05-02T01:14:29.438Z,79.36
2018-05-02T01:16:55.424Z,79.70
2018-05-02T01:19:21.486Z,79.34
2018-05-02T01:21:47.493Z,79.07
2018-05-02T01:24:13.474Z,79.24
2018-05-02T01:26:39.501Z,79.02
2018-05-02T01:29:05.493Z,78.64
2018-05-02T01:31:31.522Z,78.60
2018-05-02T01:33:57.590Z,78.06
2018-05-02T01:36:23.598Z,78.52
2018-05-02T01:38:49.597Z,79.17
2018-05-02T01:41:15.651Z,79.18
2018-05-02T01:43:41.674Z,80.30
2018-05-02T01:46:07.739Z,80.31
2018-05-02T01:48:34.739Z,79.76
2018-05-02T01:51:00.755Z,80.11
2018-05-02T01:53:26.744Z,79.44
2018-05-02T01:55:52.844Z,79.51
2018-05-02T01:58:18.916Z,79.60
2018-05-02T02:00:44.929Z,79.78
2018-05-02T02:03:10.941Z,79.32
2018-05-02T02:05:37.060Z,80.03
2018-05-02T02:08:03.059Z,80.18
2018-05-02T02:10:29.114Z,81.23
2018-05-02T02:12:55.194Z,80.14
2018-05-02T02:15:21.260Z,79.42
2018-05-02T02:17:47.263Z,79.89
2018-05-02T02:20:13.351Z,80.18
2018-05-02T02:22:39.361Z,80.40
2018-05-02T02:25:05.352Z,80.30
2018-05-02T02:27:31.395Z,80.24
2018-05-02T02:29:57.388Z,79.90
2018-05-02T02:32:23.435Z,80.68
2018-05-02T02:34:49.468Z,80.27
2018-05-02T02:37:15.485Z,80.43
2018-05-02T02:39:41.544Z,80.65
2018-05-02T02:42:07.545Z,81.41
2018-05-02T02:44:33.580Z,81.09
2018-05-02T02:46:59.624Z,80.48
2018-05-02T02:49:25.645Z,80.99
2018-05-02T02:51:51.720Z,80.50
2018-05-02T02:54:17.720Z,80.51
2018-05-02T02:56:43.724Z,80.80
2018-05-02T02:59:09.733Z,81.19
2018-05-02T03:01:35.730Z,81.89
2018-05-02T03:04:01.764Z,81.32
2018-05-02T03:06:27.796Z,80.95
2018-05-02T03:08:53.832Z,81.00
2018-05-02T03:11:19.849Z,80.92
2018-05-02T03:13:45.899Z,81.94
2018-05-02T03:16:11.991Z,81.92
2018-05-02T03:18:38.018Z,82.31
2018-05-02T03:21:04.087Z,81.31
2018-05-02T03:23:30.138Z,81.43
2018-05-02T03:25:56.155Z,80.99
2018-05-02T03:28:22.238Z,81.10
2018-05-02T03:30:48.809Z,81.51
2018-05-02T03:33:14.896Z,80.73
2018-05-02T03:35:41.158Z,81.89
2018-05-02T03:38:07.252Z,81.54
2018-05-02T03:40:33.370Z,82.05
2018-05-02T03:42:59.377Z,80.89
2018-05-02T03:45:25.444Z,81.42
2018-05-02T03:47:51.524Z,81.46
2018-05-02T03:50:17.602Z,81.81
2018-05-02T03:52:43.597Z,80.62
2018-05-02T03:55:09.602Z,80.93
2018-05-02T03:57:35.676Z,80.71
2018-05-02T04:00:13.979Z,80.73
2018-05-02T04:02:52.348Z,80.43
2018-05-02T04:05:30.688Z,80.62
2018-05-02T04:07:56.808Z,81.17
2018-05-02T04:10:22.844Z,80.86
2018-05-02T04:12:48.921Z,81.02
2018-05-02T04:15:15.067Z,81.14
2018-05-02T04:17:41.107Z,81.40
2018-05-02T04:20:07.198Z,80.61
2018-05-02T04:22:33.221Z,80.60
2018-05-02T04:24:59.284Z,80.86
2018-05-02T04:27:25.282Z,81.71
2018-05-02T04:29:51.276Z,81.01
2018-05-02T04:32:17.337Z,81.21
2018-05-02T04:34:43.361Z,80.86
2018-05-02T04:37:09.393Z,81.42
2018-05-02T04:39:35.389Z,81.30
2018-05-02T04:42:01.472Z,82.02
2018-05-02T04:44:27.504Z,80.94
2018-05-02T04:46:53.520Z,81.07
2018-05-02T04:49:19.542Z,80.58
2018-05-02T04:51:45.563Z,80.42
2018-05-02T04:54:11.592Z,80.35
2018-05-02T04:56:37.630Z,80.43
2018-05-02T04:59:03.665Z,80.42
2018-05-02T05:01:29.673Z,79.79
2018-05-02T05:03:55.687Z,80.07
2018-05-02T05:06:21.735Z,80.42
2018-05-02T05:08:47.756Z,80.29
2018-05-02T05:11:13.756Z,80.37
2018-05-02T05:13:39.784Z,80.39
2018-05-02T05:16:05.806Z,80.66
2018-05-02T05:18:31.844Z,80.19
2018-05-02T05:20:57.871Z,79.95
2018-05-02T05:23:23.868Z,79.49
2018-05-02T05:25:49.880Z,79.01
2018-05-02T05:28:16.022Z,78.92
2018-05-02T05:30:42.096Z,78.76
2018-05-02T05:33:08.092Z,79.30
2018-05-02T05:35:34.141Z,78.94
2018-05-02T05:38:00.195Z,78.96
2018-05-02T05:40:26.288Z,78.65
2018-05-02T05:42:52.360Z,78.37
2018-05-02T05:45:18.405Z,77.76
2018-05-02T05:47:44.468Z,77.60
2018-05-02T05:50:10.566Z,77.02
2018-05-02T05:52:36.589Z,76.83
2018-05-02T05:55:02.625Z,76.46
2018-05-02T05:57:29.137Z,76.17
2018-05-02T05:59:55.200Z,75.73
2018-05-02T06:02:21.292Z,75.59
2018-05-02T06:04:47.410Z,75.67
2018-05-02T06:07:13.422Z,75.68
2018-05-02T06:09:39.464Z,74.62
2018-05-02T06:12:05.486Z,73.52
2018-05-02T06:14:31.569Z,72.96
2018-05-02T06:16:57.638Z,73.18
2018-05-02T06:19:23.700Z,72.73
2018-05-02T06:21:54.286Z,72.07
2018-05-02T06:24:20.345Z,71.79
2018-05-02T06:26:46.404Z,70.45
2018-05-02T06:29:12.532Z,71.25
2018-05-02T06:31:38.775Z,71.03
2018-05-02T06:34:04.898Z,69.23
2018-05-02T06:36:30.982Z,69.97
2018-05-02T06:38:57.069Z,69.52
2018-05-02T06:41:23.213Z,68.69
2018-05-02T06:43:49.360Z,69.16
2018-05-02T06:46:15.456Z,68.89
2018-05-02T06:48:41.565Z,67.39
2018-05-02T06:51:07.649Z,67.32
2018-05-02T06:53:33.816Z,67.87
2018-05-02T06:55:59.923Z,66.14
2018-05-02T06:58:26.065Z,66.16
2018-05-02T07:00:52.258Z,65.88
2018-05-02T07:03:18.343Z,65.30
2018-05-02T07:05:44.486Z,65.12
2018-05-02T07:08:10.694Z,64.36
2018-05-02T07:10:36.878Z,64.82
2018-05-02T07:13:03.029Z,63.51
2018-05-02T07:15:29.185Z,64.15
2018-05-02T07:17:55.363Z,63.46
2018-05-02T07:20:21.486Z,62.68
2018-05-02T07:22:47.674Z,62.82
2018-05-02T07:25:14.706Z,61.12
2018-05-02T07:27:40.796Z,60.53
2018-05-02T07:30:07.025Z,60.14
2018-05-02T07:32:33.207Z,59.51
2018-05-02T07:34:59.263Z,58.41
2018-05-02T07:37:25.343Z,56.83
2018-05-02T07:39:51.391Z,57.30
2018-05-02T07:42:17.452Z,57.23
2018-05-02T07:44:43.537Z,56.29
2018-05-02T07:47:09.570Z,56.58
2018-05-02T07:49:35.657Z,55.94
2018-05-02T07:52:01.729Z,55.88
2018-05-02T07:54:27.877Z,55.66
2018-05-02T07:56:54.009Z,55.22
2018-05-02T07:59:20.153Z,55.40
2018-05-02T08:01:46.308Z,54.09
2018-05-02T08:04:12.363Z,53.59
2018-05-02T08:06:38.533Z,54.11
2018-05-02T08:09:04.772Z,53.09
2018-05-02T08:11:30.957Z,54.19
2018-05-02T08:13:57.238Z,52.44
2018-05-02T08:16:23.347Z,54.16
2018-05-02T08:18:49.429Z,54.71
2018-05-02T08:21:15.538Z,55.17
2018-05-02T08:23:41.668Z,55.48
2018-05-02T08:26:07.772Z,54.41
2018-05-02T08:28:33.839Z,53.56
2018-05-02T08:30:59.974Z,52.35
2018-05-02T08:33:26.544Z,54.31
2018-05-02T08:35:52.693Z,53.71
2018-05-02T08:38:18.750Z,54.88
2018-05-02T08:40:44.839Z,53.82
2018-05-02T08:43:11.918Z,53.29
2018-05-02T08:45:38.116Z,52.74
2018-05-02T08:48:04.202Z,51.76
2018-05-02T08:50:30.445Z,51.98
2018-05-02T08:52:56.493Z,53.81
2018-05-02T08:55:22.562Z,49.77
2018-05-02T08:57:49.546Z,50.06
2018-05-02T09:00:15.794Z,50.30
2018-05-02T09:02:41.827Z,50.68
2018-05-02T09:05:07.920Z,48.51
2018-05-02T09:07:33.976Z,50.16
2018-05-02T09:10:00.033Z,48.57
2018-05-02T09:12:26.095Z,49.49
2018-05-02T09:14:52.347Z,49.49
2018-05-02T09:17:18.395Z,48.83
2018-05-02T09:19:44.425Z,49.14
2018-05-02T09:22:10.551Z,49.18
2018-05-02T09:24:36.669Z,47.53
2018-05-02T09:27:02.798Z,46.91
2018-05-02T09:29:28.866Z,45.17
2018-05-02T09:31:55.037Z,45.96
2018-05-02T09:34:21.214Z,46.85
2018-05-02T09:36:47.323Z,46.02
2018-05-02T09:39:13.490Z,45.55
2018-05-02T09:41:39.608Z,45.16
2018-05-02T09:44:05.736Z,44.59
2018-05-02T09:46:31.711Z,44.03
2018-05-02T09:48:57.805Z,44.37
2018-05-02T09:51:23.875Z,44.52
2018-05-02T09:53:49.914Z,45.35
2018-05-02T09:56:16.026Z,44.14
2018-05-02T09:58:42.084Z,42.83
2018-05-02T10:01:08.745Z,43.61
2018-05-02T10:03:34.893Z,43.25
2018-05-02T10:06:01.207Z,42.84
2018-05-02T10:08:27.265Z,40.63
2018-05-02T10:10:53.317Z,39.15
2018-05-02T10:13:19.341Z,38.43
2018-05-02T10:15:45.401Z,38.49
2018-05-02T10:18:11.399Z,38.13
2018-05-02T10:20:37.429Z,39.72
2018-05-02T10:23:03.500Z,38.47
2018-05-02T10:25:29.531Z,38.20
2018-05-02T10:27:55.555Z,39.23
2018-05-02T10:30:21.593Z,36.97
2018-05-02T10:32:47.601Z,36.67
2018-05-02T10:35:13.623Z,35.91
2018-05-02T10:37:39.644Z,35.07
2018-05-02T10:40:05.646Z,35.00
2018-05-02T10:42:31.644Z,34.12
2018-05-02T10:44:57.652Z,32.58
2018-05-02T10:47:23.662Z,32.68
2018-05-02T10:49:49.671Z,35.29
2018-05-02T10:52:15.833Z,33.96
2018-05-02T10:54:41.923Z,34.60
2018-05-02T10:57:07.980Z,34.82
2018-05-02T10:59:34.034Z,33.93
2018-05-02T11:02:00.118Z,35.85
2018-05-02T11:04:26.173Z,34.19
2018-05-02T11:06:52.274Z,35.12
2018-05-02T11:09:18.326Z,34.88
2018-05-02T11:11:44.348Z,34.26
2018-05-02T11:14:10.441Z,34.91
2018-05-02T11:16:36.620Z,35.47
2018-05-02T11:19:02.660Z,37.68
2018-05-02T11:21:28.671Z,35.84
2018-05-02T11:23:54.799Z,36.05
2018-05-02T11:26:20.904Z,35.35
2018-05-02T11:28:46.940Z,35.47
2018-05-02T11:31:12.969Z,34.72
2018-05-02T11:33:38.991Z,34.52
2018-05-02T11:36:05.086Z,33.32
2018-05-02T11:38:31.120Z,33.78
2018-05-02T11:40:57.163Z,34.31
2018-05-02T11:43:23.276Z,33.58
2018-05-02T11:45:49.343Z,31.55
2018-05-02T11:48:15.405Z,31.79
2018-05-02T11:50:41.420Z,32.47
2018-05-02T11:53:07.557Z,33.28
2018-05-02T11:55:33.611Z,32.94
2018-05-02T11:57:59.606Z,33.18
2018-05-02T12:00:25.647Z,33.74
2018-05-02T12:02:51.654Z,35.33
2018-05-02T12:05:17.666Z,34.37
2018-05-02T12:07:43.719Z,34.33
2018-05-02T12:10:09.763Z,31.43
2018-05-02T12:12:35.831Z,32.43
2018-05-02T12:15:01.848Z,32.09
2018-05-02T12:17:27.882Z,31.12
2018-05-02T12:19:53.973Z,30.17
2018-05-02T12:22:20.017Z,30.10
2018-05-02T12:24:46.059Z,28.72
2018-05-02T12:27:12.151Z,28.55
2018-05-02T12:29:38.201Z,29.90
2018-05-02T12:32:04.212Z,28.48
2018-05-02T12:34:30.235Z,29.21
2018-05-02T12:36:56.455Z,28.99
2018-05-02T12:39:22.480Z,28.34
2018-05-02T12:41:48.508Z,28.62
2018-05-02T12:44:15.372Z,28.52
2018-05-02T12:46:41.509Z,28.37
2018-05-02T12:49:07.513Z,27.50
2018-05-02T12:51:34.133Z,27.04
2018-05-02T12:54:00.167Z,27.11
2018-05-02T12:56:26.175Z,27.15
2018-05-02T12:58:52.354Z,26.60
2018-05-02T13:01:18.466Z,26.75
2018-05-02T13:03:44.541Z,26.07
2018-05-02T13:06:10.570Z,25.08
2018-05-02T13:08:36.737Z,24.68
2018-05-02T13:11:02.817Z,25.46
2018-05-02T13:13:28.906Z,26.60
2018-05-02T13:15:54.959Z,25.72
2018-05-02T13:18:21.008Z,24.99
2018-05-02T13:20:47.714Z,24.26
2018-05-02T13:23:13.769Z,23.66
2018-05-02T13:25:39.790Z,23.79
2018-05-02T13:28:05.816Z,23.29
2018-05-02T13:30:31.811Z,23.60
2018-05-02T13:32:57.876Z,24.06
2018-05-02T13:35:23.902Z,24.63
2018-05-02T13:37:49.945Z,23.94
2018-05-02T13:40:16.052Z,23.94
2018-05-02T13:42:42.181Z,23.17
2018-05-02T13:45:08.195Z,22.26
2018-05-02T13:47:34.268Z,22.61
2018-05-02T13:50:00.433Z,23.64
2018-05-02T13:52:26.496Z,23.12
2018-05-02T13:54:52.604Z,22.51
2018-05-02T13:57:18.775Z,22.61
2018-05-02T13:59:44.896Z,22.63
2018-05-02T14:02:10.949Z,22.90
2018-05-02T14:04:37.045Z,22.61
2018-05-02T14:07:03.182Z,22.93
2018-05-02T14:09:29.390Z,21.76
2018-05-02T14:11:55.489Z,23.88
2018-05-02T14:15:39.074Z,24.50
2018-05-02T14:18:05.128Z,25.27
2018-05-02T14:20:31.163Z,25.35
2018-05-02T14:22:57.189Z,25.58
2018-05-02T14:25:23.209Z,25.85
2018-05-02T14:27:52.095Z,26.67
2018-05-02T14:30:18.118Z,24.61
2018-05-02T14:32:44.176Z,25.50
2018-05-02T14:35:10.158Z,24.79
2018-05-02T14:37:36.190Z,24.01
2018-05-02T14:40:02.336Z,24.00
2018-05-02T14:42:28.329Z,25.05
2018-05-02T14:44:54.381Z,25.47
2018-05-02T14:47:21.180Z,26.45
2018-05-02T14:49:47.678Z,26.71
2018-05-02T14:52:13.706Z,28.07
2018-05-02T14:54:39.747Z,29.34
2018-05-02T14:57:05.788Z,30.35
2018-05-02T14:59:31.863Z,30.16
2018-05-02T15:01:57.941Z,29.64
2018-05-02T15:04:23.936Z,29.75
2018-05-02T15:06:49.923Z,30.05
2018-05-02T15:09:15.924Z,31.37
2018-05-02T15:11:41.896Z,32.47
2018-05-02T15:14:07.885Z,31.59
2018-05-02T15:16:34.073Z,31.92
2018-05-02T15:19:00.089Z,32.54
2018-05-02T15:21:26.141Z,32.39
2018-05-02T15:23:52.197Z,33.87
2018-05-02T15:26:18.208Z,34.07
2018-05-02T15:28:44.331Z,34.53
2018-05-02T15:31:10.353Z,34.57
2018-05-02T15:33:36.416Z,35.22
2018-05-02T15:36:02.531Z,35.70
2018-05-02T15:38:29.131Z,36.12
2018-05-02T15:40:55.166Z,36.48
2018-05-02T15:43:21.167Z,36.45
2018-05-02T15:45:47.187Z,37.74
2018-05-02T15:48:13.229Z,38.16
2018-05-02T15:50:39.297Z,38.13
2018-05-02T15:53:05.302Z,38.76
2018-05-02T15:55:31.319Z,38.83
2018-05-02T15:57:57.494Z,38.95
2018-05-02T16:00:24.195Z,39.37
2018-05-02T16:02:50.334Z,40.24
2018-05-02T16:05:16.514Z,40.49
2018-05-02T16:07:42.517Z,40.91
2018-05-02T16:10:08.725Z,42.17
2018-05-02T16:12:35.498Z,42.37
2018-05-02T16:15:01.629Z,43.04
2018-05-02T16:17:27.680Z,41.94
2018-05-02T16:19:53.798Z,42.16
2018-05-02T16:22:19.845Z,41.56
2018-05-02T16:24:45.896Z,42.41
2018-05-02T16:27:11.892Z,43.11
2018-05-02T16:29:37.961Z,43.46
2018-05-02T16:32:03.997Z,44.86
2018-05-02T16:34:30.047Z,45.35
2018-05-02T16:36:56.230Z,45.49
2018-05-02T16:39:22.308Z,47.49
2018-05-02T16:41:48.418Z,48.11
2018-05-02T16:44:14.536Z,49.89
2018-05-02T16:46:40.553Z,51.74
2018-05-02T16:49:06.560Z,52.30
2018-05-02T16:51:32.634Z,53.57
2018-05-02T16:53:58.761Z,55.08
2018-05-02T16:56:24.763Z,55.90
2018-05-02T16:58:57.842Z,56.17
2018-05-02T17:01:23.938Z,57.43
2018-05-02T17:03:49.971Z,57.20
2018-05-02T17:06:16.015Z,58.09
2018-05-02T17:08:42.067Z,58.49
2018-05-02T17:11:08.269Z,59.94
2018-05-02T17:13:34.465Z,61.35
2018-05-02T17:16:00.565Z,61.74
2018-05-02T17:18:26.616Z,65.26
2018-05-02T17:20:52.625Z,65.64
2018-05-02T17:23:18.701Z,65.92
2018-05-02T17:25:44.778Z,66.34
2018-05-02T17:28:10.932Z,66.51
2018-05-02T17:30:37.106Z,67.51
2018-05-02T17:33:03.096Z,68.23
2018-05-02T17:35:29.195Z,68.06
2018-05-02T17:37:55.439Z,68.16
2018-05-02T17:40:21.469Z,69.12
2018-05-02T17:42:47.515Z,68.75
2018-05-02T17:45:13.551Z,69.21
2018-05-02T17:47:39.552Z,70.71
2018-05-02T17:50:05.573Z,71.37
2018-05-02T17:52:31.598Z,70.57
2018-05-02T17:54:57.687Z,71.93
2018-05-02T17:57:23.745Z,71.61
2018-05-02T17:59:49.821Z,71.20
2018-05-02T18:02:15.852Z,71.08
2018-05-02T18:04:41.954Z,71.87
2018-05-02T18:07:08.025Z,72.21
2018-05-02T18:09:34.154Z,71.63
2018-05-02T18:12:00.205Z,72.66
2018-05-02T18:14:26.238Z,73.57
2018-05-02T18:16:52.308Z,73.03
2018-05-02T18:19:18.613Z,75.00
2018-05-02T18:21:44.771Z,75.75
2018-05-02T18:24:11.031Z,75.92
2018-05-02T18:26:37.146Z,76.05
2018-05-02T18:29:03.174Z,77.75
2018-05-02T18:31:29.217Z,78.28
2018-05-02T18:33:55.337Z,78.40
2018-05-02T18:36:21.407Z,79.15
2018-05-02T18:38:47.409Z,79.29
2018-05-02T18:41:13.434Z,80.13
2018-05-02T18:43:39.596Z,80.26
2018-05-02T18:46:05.702Z,80.48
2018-05-02T18:48:31.708Z,80.31
2018-05-02T18:50:57.716Z,80.29
2018-05-02T18:53:23.770Z,80.84
2018-05-02T18:55:49.832Z,80.79
2018-05-02T18:58:15.872Z,82.08
2018-05-02T19:00:42.390Z,82.57
2018-05-02T19:03:08.498Z,82.35
2018-05-02T19:05:34.500Z,82.64
2018-05-02T19:08:00.516Z,83.19
2018-05-02T19:10:26.604Z,83.90
2018-05-02T19:12:52.748Z,84.13
2018-05-02T19:15:18.803Z,84.16
2018-05-02T19:17:51.087Z,84.66
2018-05-02T19:20:23.306Z,84.20
2018-05-02T19:22:49.347Z,85.10
2018-05-02T19:25:21.637Z,84.26
2018-05-02T19:27:48.287Z,84.69
2018-05-02T19:30:14.519Z,84.91
2018-05-02T19:32:47.261Z,84.38
2018-05-02T19:35:13.347Z,84.90
2018-05-02T19:37:39.440Z,84.58
2018-05-02T19:40:11.564Z,84.50
2018-05-02T19:45:42.776Z,84.57
2018-05-02T19:48:10.529Z,84.51
2018-05-02T19:50:37.280Z,84.77
2018-05-02T19:53:03.297Z,84.58
2018-05-02T19:55:29.327Z,84.49
2018-05-02T19:57:55.382Z,84.72
2018-05-02T20:00:27.494Z,84.75
2018-05-02T20:02:59.532Z,85.07
2018-05-02T20:05:25.590Z,84.95
2018-05-02T20:07:51.662Z,85.01
2018-05-02T20:10:23.845Z,85.59
2018-05-02T20:12:55.727Z,85.21
2018-05-02T20:15:21.768Z,85.06
2018-05-02T20:17:47.784Z,85.30
2018-05-02T20:20:14.083Z,84.75
2018-05-02T20:22:40.142Z,84.39
2018-05-02T20:25:06.304Z,85.05
2018-05-02T20:27:32.415Z,84.55
2018-05-02T20:29:58.471Z,84.62
2018-05-02T20:32:24.516Z,85.13
2018-05-02T20:34:50.575Z,85.20
2018-05-02T20:37:16.649Z,84.22
2018-05-02T20:39:42.799Z,83.74
2018-05-02T20:42:08.843Z,83.98
2018-05-02T20:44:34.892Z,83.66
2018-05-02T20:47:00.956Z,83.64
2018-05-02T20:49:27.132Z,84.17
2018-05-02T20:51:53.097Z,84.34
2018-05-02T20:54:19.130Z,84.75
2018-05-02T20:56:45.266Z,84.42
2018-05-02T20:59:11.419Z,83.88
2018-05-02T21:01:37.471Z,83.55
2018-05-02T21:04:03.517Z,84.03
2018-05-02T21:06:29.561Z,83.28
2018-05-02T21:08:55.590Z,83.52
2018-05-02T21:11:21.670Z,83.34
2018-05-02T21:13:47.714Z,83.27
2018-05-02T21:16:13.740Z,83.52
2018-05-02T21:18:39.781Z,83.67
2018-05-02T21:21:05.800Z,83.03
2018-05-02T21:23:31.822Z,82.85
2018-05-02T21:25:57.848Z,82.62
2018-05-02T21:28:23.892Z,82.52
2018-05-02T21:30:49.971Z,82.19
2018-05-02T21:33:16.001Z,82.22
2018-05-02T21:35:42.045Z,81.92
2018-05-02T21:38:08.983Z,81.87
2018-05-02T21:40:35.240Z,81.66
2018-05-02T21:43:01.289Z,81.61
2018-05-02T21:45:27.314Z,81.43
2018-05-02T21:47:53.459Z,80.51
2018-05-02T21:50:19.534Z,80.59
2018-05-02T21:52:45.604Z,80.40
2018-05-02T21:55:11.689Z,80.78
2018-05-02T21:57:37.726Z,80.35
2018-05-02T22:00:03.848Z,80.83
2018-05-02T22:02:29.945Z,81.01
2018-05-02T22:04:55.986Z,81.08
2018-05-02T22:07:22.045Z,80.73
2018-05-02T22:09:48.059Z,81.32
2018-05-02T22:12:14.091Z,80.81
2018-05-02T22:14:40.128Z,80.33
2018-05-02T22:17:06.141Z,80.50
2018-05-02T22:19:32.213Z,79.89
2018-05-02T22:21:58.293Z,80.69
2018-05-02T22:24:24.651Z,80.45
2018-05-02T22:26:50.687Z,80.55
2018-05-02T22:29:16.697Z,80.77
2018-05-02T22:31:42.754Z,80.55
2018-05-02T22:34:09.399Z,80.00
2018-05-02T22:36:35.492Z,79.96
2018-05-02T22:39:01.516Z,80.00
2018-05-02T22:41:27.545Z,79.61
2018-05-02T22:43:53.569Z,79.63
2018-05-02T22:46:19.575Z,80.03
2018-05-02T22:48:45.621Z,79.89
2018-05-02T22:51:11.669Z,79.75
2018-05-02T22:53:37.668Z,80.57
2018-05-02T22:56:03.705Z,80.34
2018-05-02T22:58:29.702Z,80.39
2018-05-02T23:00:55.728Z,80.47
2018-05-02T23:03:21.786Z,80.46
2018-05-02T23:05:47.803Z,80.43
2018-05-02T23:08:13.809Z,79.88
2018-05-02T23:10:39.816Z,80.13
2018-05-02T23:13:05.824Z,80.29
2018-05-02T23:15:31.892Z,80.23
2018-05-02T23:17:57.988Z,80.63
2018-05-02T23:20:24.050Z,80.53
